sensor_id;sensor_type;location;lat;lon;timestamp;temperature;humidity
25949;DHT22;13961;51.178;4.448;2022-10-22T00:01:16;15.60;99.90
25949;DHT22;13961;51.178;4.448;2022-10-22T00:03:43;15.40;99.90
25949;DHT22;13961;51.178;4.448;2022-10-22T00:06:09;15.30;99.90
25949;DHT22;13961;51.178;4.448;2022-10-22T00:08:34;15.20;99.90
25949;DHT22;13961;51.178;4.448;2022-10-22T00:11:08;15.30;99.90
25949;DHT22;13961;51.178;4.448;2022-10-22T00:13:33;15.40;99.90
25949;DHT22;13961;51.178;4.448;2022-10-22T00:16:00;15.50;99.90
25949;DHT22;13961;51.178;4.448;2022-10-22T00:18:28;15.50;99.90
25949;DHT22;13961;51.178;4.448;2022-10-22T00:20:53;15.60;99.90
25949;DHT22;13961;51.178;4.448;2022-10-22T00:23:19;15.60;99.90
25949;DHT22;13961;51.178;4.448;2022-10-22T00:25:45;15.50;99.90
25949;DHT22;13961;51.178;4.448;2022-10-22T00:28:10;15.60;99.90
25949;DHT22;13961;51.178;4.448;2022-10-22T00:30:36;15.40;99.90
25949;DHT22;13961;51.178;4.448;2022-10-22T00:33:02;15.30;99.90
25949;DHT22;13961;51.178;4.448;2022-10-22T00:35:28;15.30;99.90
25949;DHT22;13961;51.178;4.448;2022-10-22T00:37:53;15.30;99.90
25949;DHT22;13961;51.178;4.448;2022-10-22T00:40:19;15.50;99.90
25949;DHT22;13961;51.178;4.448;2022-10-22T00:42:45;15.30;99.90
25949;DHT22;13961;51.178;4.448;2022-10-22T00:47:42;15.50;99.90
25949;DHT22;13961;51.178;4.448;2022-10-22T00:50:20;15.40;99.90
25949;DHT22;13961;51.178;4.448;2022-10-22T00:52:48;15.40;99.90
25949;DHT22;13961;51.178;4.448;2022-10-22T00:55:14;15.50;99.90
25949;DHT22;13961;51.178;4.448;2022-10-22T00:57:41;15.60;99.90
25949;DHT22;13961;51.178;4.448;2022-10-22T01:00:09;15.50;99.90
25949;DHT22;13961;51.178;4.448;2022-10-22T01:02:35;15.50;99.90
25949;DHT22;13961;51.178;4.448;2022-10-22T01:05:01;15.50;99.90
25949;DHT22;13961;51.178;4.448;2022-10-22T01:07:27;15.50;99.90
25949;DHT22;13961;51.178;4.448;2022-10-22T01:21:06;15.40;99.90
25949;DHT22;13961;51.178;4.448;2022-10-22T01:24:14;15.40;99.90
25949;DHT22;13961;51.178;4.448;2022-10-22T01:29:41;15.50;99.90
25949;DHT22;13961;51.178;4.448;2022-10-22T01:32:14;15.40;99.90
25949;DHT22;13961;51.178;4.448;2022-10-22T01:34:42;15.50;99.90
25949;DHT22;13961;51.178;4.448;2022-10-22T01:37:11;15.50;99.90
25949;DHT22;13961;51.178;4.448;2022-10-22T01:39:40;15.50;99.90
25949;DHT22;13961;51.178;4.448;2022-10-22T01:42:08;15.60;99.90
25949;DHT22;13961;51.178;4.448;2022-10-22T01:44:35;15.50;99.90
25949;DHT22;13961;51.178;4.448;2022-10-22T02:04:22;15.60;99.90
25949;DHT22;13961;51.178;4.448;2022-10-22T02:06:55;15.50;99.90
25949;DHT22;13961;51.178;4.448;2022-10-22T02:09:23;15.50;99.90
25949;DHT22;13961;51.178;4.448;2022-10-22T02:11:51;15.50;99.90
25949;DHT22;13961;51.178;4.448;2022-10-22T02:14:17;15.50;99.90
25949;DHT22;13961;51.178;4.448;2022-10-22T02:16:44;15.50;99.90
25949;DHT22;13961;51.178;4.448;2022-10-22T02:19:25;15.40;99.90
25949;DHT22;13961;51.178;4.448;2022-10-22T02:21:53;15.40;99.90
25949;DHT22;13961;51.178;4.448;2022-10-22T02:24:20;15.40;99.90
25949;DHT22;13961;51.178;4.448;2022-10-22T02:27:15;15.50;99.90
25949;DHT22;13961;51.178;4.448;2022-10-22T02:29:51;15.40;99.90
25949;DHT22;13961;51.178;4.448;2022-10-22T02:32:23;15.30;99.90
25949;DHT22;13961;51.178;4.448;2022-10-22T02:34:52;15.40;99.90
25949;DHT22;13961;51.178;4.448;2022-10-22T02:37:19;15.40;99.90
25949;DHT22;13961;51.178;4.448;2022-10-22T02:39:46;15.40;99.90
25949;DHT22;13961;51.178;4.448;2022-10-22T02:42:13;15.30;99.90
25949;DHT22;13961;51.178;4.448;2022-10-22T02:44:39;15.30;99.90
25949;DHT22;13961;51.178;4.448;2022-10-22T02:47:05;15.30;99.90
25949;DHT22;13961;51.178;4.448;2022-10-22T02:49:31;15.30;99.90
25949;DHT22;13961;51.178;4.448;2022-10-22T02:51:57;15.40;99.90
25949;DHT22;13961;51.178;4.448;2022-10-22T02:54:26;15.30;99.90
25949;DHT22;13961;51.178;4.448;2022-10-22T02:56:53;15.40;99.90
25949;DHT22;13961;51.178;4.448;2022-10-22T02:59:19;15.40;99.90
25949;DHT22;13961;51.178;4.448;2022-10-22T03:01:45;15.40;99.90
25949;DHT22;13961;51.178;4.448;2022-10-22T03:04:12;15.40;99.90
25949;DHT22;13961;51.178;4.448;2022-10-22T03:06:38;15.30;99.90
25949;DHT22;13961;51.178;4.448;2022-10-22T03:09:03;15.30;99.90
25949;DHT22;13961;51.178;4.448;2022-10-22T03:11:29;15.30;99.90
25949;DHT22;13961;51.178;4.448;2022-10-22T03:13:55;15.20;99.90
25949;DHT22;13961;51.178;4.448;2022-10-22T03:16:20;15.30;99.90
25949;DHT22;13961;51.178;4.448;2022-10-22T03:18:46;15.20;99.90
25949;DHT22;13961;51.178;4.448;2022-10-22T03:24:00;15.20;99.90
25949;DHT22;13961;51.178;4.448;2022-10-22T03:26:27;15.20;99.90
25949;DHT22;13961;51.178;4.448;2022-10-22T03:28:54;15.20;99.90
25949;DHT22;13961;51.178;4.448;2022-10-22T03:31:20;15.20;99.90
25949;DHT22;13961;51.178;4.448;2022-10-22T03:33:46;15.30;99.90
25949;DHT22;13961;51.178;4.448;2022-10-22T03:36:13;15.30;99.90
25949;DHT22;13961;51.178;4.448;2022-10-22T03:38:39;15.30;99.90
25949;DHT22;13961;51.178;4.448;2022-10-22T03:41:05;15.40;99.90
25949;DHT22;13961;51.178;4.448;2022-10-22T03:43:36;15.40;99.90
25949;DHT22;13961;51.178;4.448;2022-10-22T03:46:03;15.40;99.90
25949;DHT22;13961;51.178;4.448;2022-10-22T03:48:29;15.40;99.90
25949;DHT22;13961;51.178;4.448;2022-10-22T03:50:54;15.40;99.90
25949;DHT22;13961;51.178;4.448;2022-10-22T03:53:21;15.50;99.90
25949;DHT22;13961;51.178;4.448;2022-10-22T03:55:46;15.60;99.90
25949;DHT22;13961;51.178;4.448;2022-10-22T03:58:12;15.50;99.90
25949;DHT22;13961;51.178;4.448;2022-10-22T04:00:38;15.50;99.90
25949;DHT22;13961;51.178;4.448;2022-10-22T04:03:04;15.40;99.90
25949;DHT22;13961;51.178;4.448;2022-10-22T04:05:32;15.40;99.90
25949;DHT22;13961;51.178;4.448;2022-10-22T04:07:58;15.40;99.90
25949;DHT22;13961;51.178;4.448;2022-10-22T04:10:25;15.40;99.90
25949;DHT22;13961;51.178;4.448;2022-10-22T04:12:50;15.30;99.90
25949;DHT22;13961;51.178;4.448;2022-10-22T04:15:16;15.30;99.90
25949;DHT22;13961;51.178;4.448;2022-10-22T04:17:42;15.30;99.90
25949;DHT22;13961;51.178;4.448;2022-10-22T04:20:08;15.30;99.90
25949;DHT22;13961;51.178;4.448;2022-10-22T04:22:35;15.30;99.90
25949;DHT22;13961;51.178;4.448;2022-10-22T04:25:03;15.30;99.90
25949;DHT22;13961;51.178;4.448;2022-10-22T04:27:31;15.30;99.90
25949;DHT22;13961;51.178;4.448;2022-10-22T04:29:56;15.40;99.90
25949;DHT22;13961;51.178;4.448;2022-10-22T04:32:22;15.50;99.90
25949;DHT22;13961;51.178;4.448;2022-10-22T04:34:48;15.30;99.90
25949;DHT22;13961;51.178;4.448;2022-10-22T04:37:13;15.30;99.90
25949;DHT22;13961;51.178;4.448;2022-10-22T04:39:39;15.30;99.90
25949;DHT22;13961;51.178;4.448;2022-10-22T04:42:05;15.30;99.90
25949;DHT22;13961;51.178;4.448;2022-10-22T04:44:30;15.20;99.90
25949;DHT22;13961;51.178;4.448;2022-10-22T04:46:57;15.20;99.90
25949;DHT22;13961;51.178;4.448;2022-10-22T04:49:23;15.20;99.90
25949;DHT22;13961;51.178;4.448;2022-10-22T04:51:48;15.10;99.90
25949;DHT22;13961;51.178;4.448;2022-10-22T04:54:14;15.10;99.90
25949;DHT22;13961;51.178;4.448;2022-10-22T04:56:40;15.20;99.90
25949;DHT22;13961;51.178;4.448;2022-10-22T04:59:09;15.20;99.90
25949;DHT22;13961;51.178;4.448;2022-10-22T05:01:42;15.00;99.90
25949;DHT22;13961;51.178;4.448;2022-10-22T05:04:13;15.00;99.90
25949;DHT22;13961;51.178;4.448;2022-10-22T05:06:39;15.00;99.90
25949;DHT22;13961;51.178;4.448;2022-10-22T05:09:07;14.90;99.90
25949;DHT22;13961;51.178;4.448;2022-10-22T05:11:36;14.90;99.90
25949;DHT22;13961;51.178;4.448;2022-10-22T05:14:04;15.00;99.90
25949;DHT22;13961;51.178;4.448;2022-10-22T05:16:31;15.00;99.90
25949;DHT22;13961;51.178;4.448;2022-10-22T05:18:58;15.00;99.90
25949;DHT22;13961;51.178;4.448;2022-10-22T05:21:25;15.10;99.90
25949;DHT22;13961;51.178;4.448;2022-10-22T05:23:52;15.00;99.90
25949;DHT22;13961;51.178;4.448;2022-10-22T05:26:19;14.80;99.90
25949;DHT22;13961;51.178;4.448;2022-10-22T05:28:47;14.90;99.90
25949;DHT22;13961;51.178;4.448;2022-10-22T05:31:13;15.00;99.90
25949;DHT22;13961;51.178;4.448;2022-10-22T05:33:40;14.90;99.90
25949;DHT22;13961;51.178;4.448;2022-10-22T05:36:07;14.90;99.90
25949;DHT22;13961;51.178;4.448;2022-10-22T05:38:34;14.90;99.90
25949;DHT22;13961;51.178;4.448;2022-10-22T05:41:09;14.90;99.90
25949;DHT22;13961;51.178;4.448;2022-10-22T05:43:35;14.90;99.90
25949;DHT22;13961;51.178;4.448;2022-10-22T05:46:04;14.90;99.90
25949;DHT22;13961;51.178;4.448;2022-10-22T05:48:31;14.70;99.90
25949;DHT22;13961;51.178;4.448;2022-10-22T05:50:59;14.70;99.90
25949;DHT22;13961;51.178;4.448;2022-10-22T05:53:33;14.70;99.90
25949;DHT22;13961;51.178;4.448;2022-10-22T05:56:05;14.80;99.90
25949;DHT22;13961;51.178;4.448;2022-10-22T05:58:31;14.80;99.90
25949;DHT22;13961;51.178;4.448;2022-10-22T06:01:20;14.80;99.90
25949;DHT22;13961;51.178;4.448;2022-10-22T06:03:47;14.80;99.90
25949;DHT22;13961;51.178;4.448;2022-10-22T06:06:19;14.80;99.90
25949;DHT22;13961;51.178;4.448;2022-10-22T06:08:49;14.70;99.90
25949;DHT22;13961;51.178;4.448;2022-10-22T06:11:15;14.70;99.90
25949;DHT22;13961;51.178;4.448;2022-10-22T06:13:46;14.70;99.90
25949;DHT22;13961;51.178;4.448;2022-10-22T06:16:15;14.70;99.90
25949;DHT22;13961;51.178;4.448;2022-10-22T06:18:41;14.60;99.90
25949;DHT22;13961;51.178;4.448;2022-10-22T06:21:13;14.70;99.90
25949;DHT22;13961;51.178;4.448;2022-10-22T06:23:40;14.80;99.90
25949;DHT22;13961;51.178;4.448;2022-10-22T06:26:06;14.80;99.90
25949;DHT22;13961;51.178;4.448;2022-10-22T06:28:32;14.80;99.90
25949;DHT22;13961;51.178;4.448;2022-10-22T06:30:59;14.90;99.90
25949;DHT22;13961;51.178;4.448;2022-10-22T06:33:26;14.90;99.90
25949;DHT22;13961;51.178;4.448;2022-10-22T06:35:52;14.90;99.90
25949;DHT22;13961;51.178;4.448;2022-10-22T06:38:18;14.90;99.90
25949;DHT22;13961;51.178;4.448;2022-10-22T06:40:44;15.10;99.90
25949;DHT22;13961;51.178;4.448;2022-10-22T06:43:11;15.20;99.90
25949;DHT22;13961;51.178;4.448;2022-10-22T06:45:37;15.30;99.90
25949;DHT22;13961;51.178;4.448;2022-10-22T06:48:04;15.30;99.90
25949;DHT22;13961;51.178;4.448;2022-10-22T06:50:30;15.40;99.90
25949;DHT22;13961;51.178;4.448;2022-10-22T06:52:56;15.60;99.90
25949;DHT22;13961;51.178;4.448;2022-10-22T06:55:22;15.70;99.90
25949;DHT22;13961;51.178;4.448;2022-10-22T06:57:48;15.70;99.90
25949;DHT22;13961;51.178;4.448;2022-10-22T07:00:14;15.60;99.90
25949;DHT22;13961;51.178;4.448;2022-10-22T07:02:39;15.60;99.90
25949;DHT22;13961;51.178;4.448;2022-10-22T07:05:05;15.70;99.90
25949;DHT22;13961;51.178;4.448;2022-10-22T07:07:31;15.80;99.90
25949;DHT22;13961;51.178;4.448;2022-10-22T07:09:57;15.90;99.90
25949;DHT22;13961;51.178;4.448;2022-10-22T07:12:22;16.10;99.90
25949;DHT22;13961;51.178;4.448;2022-10-22T07:14:49;16.10;99.90
25949;DHT22;13961;51.178;4.448;2022-10-22T07:17:14;16.00;99.90
25949;DHT22;13961;51.178;4.448;2022-10-22T07:19:40;16.00;99.90
25949;DHT22;13961;51.178;4.448;2022-10-22T07:22:06;15.80;99.90
25949;DHT22;13961;51.178;4.448;2022-10-22T07:24:31;15.80;99.90
25949;DHT22;13961;51.178;4.448;2022-10-22T07:26:57;16.00;99.90
25949;DHT22;13961;51.178;4.448;2022-10-22T07:29:24;16.90;99.90
25949;DHT22;13961;51.178;4.448;2022-10-22T07:31:49;18.00;99.90
25949;DHT22;13961;51.178;4.448;2022-10-22T07:34:15;18.90;99.90
25949;DHT22;13961;51.178;4.448;2022-10-22T07:36:41;19.70;99.90
25949;DHT22;13961;51.178;4.448;2022-10-22T07:39:07;20.00;99.90
25949;DHT22;13961;51.178;4.448;2022-10-22T07:41:33;20.30;99.90
25949;DHT22;13961;51.178;4.448;2022-10-22T07:43:59;20.30;99.90
25949;DHT22;13961;51.178;4.448;2022-10-22T07:46:26;20.90;99.90
25949;DHT22;13961;51.178;4.448;2022-10-22T07:48:52;21.50;99.90
25949;DHT22;13961;51.178;4.448;2022-10-22T07:51:18;22.00;99.90
25949;DHT22;13961;51.178;4.448;2022-10-22T07:53:44;22.20;99.90
25949;DHT22;13961;51.178;4.448;2022-10-22T07:56:10;22.20;99.90
25949;DHT22;13961;51.178;4.448;2022-10-22T07:58:36;22.20;99.90
25949;DHT22;13961;51.178;4.448;2022-10-22T08:01:02;21.80;99.90
25949;DHT22;13961;51.178;4.448;2022-10-22T08:03:30;20.80;99.90
25949;DHT22;13961;51.178;4.448;2022-10-22T08:05:57;20.10;99.90
25949;DHT22;13961;51.178;4.448;2022-10-22T08:08:23;19.50;99.90
25949;DHT22;13961;51.178;4.448;2022-10-22T08:10:50;18.70;99.90
25949;DHT22;13961;51.178;4.448;2022-10-22T08:13:17;18.30;99.90
25949;DHT22;13961;51.178;4.448;2022-10-22T08:15:43;18.00;99.90
25949;DHT22;13961;51.178;4.448;2022-10-22T08:18:13;18.10;99.90
25949;DHT22;13961;51.178;4.448;2022-10-22T08:20:38;18.40;99.90
25949;DHT22;13961;51.178;4.448;2022-10-22T08:23:05;18.40;99.90
25949;DHT22;13961;51.178;4.448;2022-10-22T08:25:31;18.20;99.90
25949;DHT22;13961;51.178;4.448;2022-10-22T08:27:57;18.20;99.90
25949;DHT22;13961;51.178;4.448;2022-10-22T08:30:23;18.50;99.90
25949;DHT22;13961;51.178;4.448;2022-10-22T08:32:49;18.40;99.90
25949;DHT22;13961;51.178;4.448;2022-10-22T08:35:16;18.30;99.90
25949;DHT22;13961;51.178;4.448;2022-10-22T08:37:41;18.40;99.90
25949;DHT22;13961;51.178;4.448;2022-10-22T08:40:14;18.50;99.90
25949;DHT22;13961;51.178;4.448;2022-10-22T08:43:05;18.30;99.90
25949;DHT22;13961;51.178;4.448;2022-10-22T08:48:48;18.20;99.90
25949;DHT22;13961;51.178;4.448;2022-10-22T08:51:21;17.90;99.90
25949;DHT22;13961;51.178;4.448;2022-10-22T08:54:21;17.60;99.90
25949;DHT22;13961;51.178;4.448;2022-10-22T08:57:21;17.60;99.90
25949;DHT22;13961;51.178;4.448;2022-10-22T09:00:09;17.60;99.90
25949;DHT22;13961;51.178;4.448;2022-10-22T09:02:56;17.70;99.90
25949;DHT22;13961;51.178;4.448;2022-10-22T09:08:17;18.00;99.90
25949;DHT22;13961;51.178;4.448;2022-10-22T09:13:40;17.80;99.90
25949;DHT22;13961;51.178;4.448;2022-10-22T09:16:50;17.90;99.90
25949;DHT22;13961;51.178;4.448;2022-10-22T09:25:28;18.30;99.90
25949;DHT22;13961;51.178;4.448;2022-10-22T09:27:55;18.10;99.90
25949;DHT22;13961;51.178;4.448;2022-10-22T09:30:43;18.20;99.90
25949;DHT22;13961;51.178;4.448;2022-10-22T09:35:59;18.30;99.90
25949;DHT22;13961;51.178;4.448;2022-10-22T09:38:51;18.40;99.90
25949;DHT22;13961;51.178;4.448;2022-10-22T09:41:21;18.50;99.90
25949;DHT22;13961;51.178;4.448;2022-10-22T09:43:48;18.70;99.90
25949;DHT22;13961;51.178;4.448;2022-10-22T09:46:24;18.80;99.90
25949;DHT22;13961;51.178;4.448;2022-10-22T09:49:08;18.90;99.90
25949;DHT22;13961;51.178;4.448;2022-10-22T09:51:41;19.20;99.90
25949;DHT22;13961;51.178;4.448;2022-10-22T09:54:23;19.40;99.90
25949;DHT22;13961;51.178;4.448;2022-10-22T09:57:16;19.70;99.90
25949;DHT22;13961;51.178;4.448;2022-10-22T09:59:44;19.70;99.90
25949;DHT22;13961;51.178;4.448;2022-10-22T10:02:26;19.30;99.90
25949;DHT22;13961;51.178;4.448;2022-10-22T10:04:55;19.10;99.90
25949;DHT22;13961;51.178;4.448;2022-10-22T10:07:23;19.10;99.90
25949;DHT22;13961;51.178;4.448;2022-10-22T10:09:50;19.30;99.90
25949;DHT22;13961;51.178;4.448;2022-10-22T10:15:26;19.50;99.90
25949;DHT22;13961;51.178;4.448;2022-10-22T10:20:34;19.30;99.90
25949;DHT22;13961;51.178;4.448;2022-10-22T10:25:45;19.50;99.90
25949;DHT22;13961;51.178;4.448;2022-10-22T10:36:42;19.80;99.90
25949;DHT22;13961;51.178;4.448;2022-10-22T10:39:17;19.60;99.90
25949;DHT22;13961;51.178;4.448;2022-10-22T10:42:16;19.30;99.90
25949;DHT22;13961;51.178;4.448;2022-10-22T10:44:57;19.40;99.90
25949;DHT22;13961;51.178;4.448;2022-10-22T10:50:17;20.10;99.90
25949;DHT22;13961;51.178;4.448;2022-10-22T10:55:56;20.10;99.90
25949;DHT22;13961;51.178;4.448;2022-10-22T11:01:01;20.20;99.90
25949;DHT22;13961;51.178;4.448;2022-10-22T11:03:44;20.20;99.90
25949;DHT22;13961;51.178;4.448;2022-10-22T11:06:18;20.20;99.90
25949;DHT22;13961;51.178;4.448;2022-10-22T11:08:51;20.20;99.90
25949;DHT22;13961;51.178;4.448;2022-10-22T11:11:30;20.20;99.90
25949;DHT22;13961;51.178;4.448;2022-10-22T11:14:02;20.10;99.90
25949;DHT22;13961;51.178;4.448;2022-10-22T11:16:38;20.40;99.90
25949;DHT22;13961;51.178;4.448;2022-10-22T11:22:18;20.50;99.90
25949;DHT22;13961;51.178;4.448;2022-10-22T11:30:31;20.20;99.90
25949;DHT22;13961;51.178;4.448;2022-10-22T11:33:03;20.20;99.90
25949;DHT22;13961;51.178;4.448;2022-10-22T11:35:39;20.20;99.90
25949;DHT22;13961;51.178;4.448;2022-10-22T11:38:07;20.10;99.90
25949;DHT22;13961;51.178;4.448;2022-10-22T11:41:00;19.90;99.90
25949;DHT22;13961;51.178;4.448;2022-10-22T11:43:47;20.10;99.90
25949;DHT22;13961;51.178;4.448;2022-10-22T11:48:43;20.40;99.90
25949;DHT22;13961;51.178;4.448;2022-10-22T11:51:30;20.40;99.90
25949;DHT22;13961;51.178;4.448;2022-10-22T11:54:01;20.50;99.90
25949;DHT22;13961;51.178;4.448;2022-10-22T11:56:36;20.30;99.90
25949;DHT22;13961;51.178;4.448;2022-10-22T11:59:28;20.30;99.90
25949;DHT22;13961;51.178;4.448;2022-10-22T12:01:56;20.50;99.90
25949;DHT22;13961;51.178;4.448;2022-10-22T12:04:39;20.60;99.90
25949;DHT22;13961;51.178;4.448;2022-10-22T12:07:29;20.30;99.90
25949;DHT22;13961;51.178;4.448;2022-10-22T12:09:57;20.20;99.90
25949;DHT22;13961;51.178;4.448;2022-10-22T12:12:25;20.00;99.90
25949;DHT22;13961;51.178;4.448;2022-10-22T12:14:57;20.00;99.90
25949;DHT22;13961;51.178;4.448;2022-10-22T12:17:24;20.30;99.90
25949;DHT22;13961;51.178;4.448;2022-10-22T12:20:12;20.20;99.90
25949;DHT22;13961;51.178;4.448;2022-10-22T12:22:38;20.00;99.90
25949;DHT22;13961;51.178;4.448;2022-10-22T12:25:24;19.90;99.90
25949;DHT22;13961;51.178;4.448;2022-10-22T12:27:55;20.00;99.90
25949;DHT22;13961;51.178;4.448;2022-10-22T12:30:24;19.90;99.90
25949;DHT22;13961;51.178;4.448;2022-10-22T12:32:58;20.00;99.90
25949;DHT22;13961;51.178;4.448;2022-10-22T12:35:29;19.90;99.90
25949;DHT22;13961;51.178;4.448;2022-10-22T12:38:15;19.90;99.90
25949;DHT22;13961;51.178;4.448;2022-10-22T12:40:42;20.00;99.90
25949;DHT22;13961;51.178;4.448;2022-10-22T12:43:14;20.10;99.90
25949;DHT22;13961;51.178;4.448;2022-10-22T12:45:47;20.30;99.90
25949;DHT22;13961;51.178;4.448;2022-10-22T12:48:17;20.40;99.90
25949;DHT22;13961;51.178;4.448;2022-10-22T12:50:48;20.70;99.90
25949;DHT22;13961;51.178;4.448;2022-10-22T12:53:26;20.80;99.90
25949;DHT22;13961;51.178;4.448;2022-10-22T12:55:54;20.60;99.90
25949;DHT22;13961;51.178;4.448;2022-10-22T12:58:31;20.70;99.90
25949;DHT22;13961;51.178;4.448;2022-10-22T13:00:59;20.60;99.90
25949;DHT22;13961;51.178;4.448;2022-10-22T13:03:46;20.80;99.90
25949;DHT22;13961;51.178;4.448;2022-10-22T13:08:44;20.70;99.90
25949;DHT22;13961;51.178;4.448;2022-10-22T13:11:20;20.50;99.90
25949;DHT22;13961;51.178;4.448;2022-10-22T13:13:47;20.50;99.90
25949;DHT22;13961;51.178;4.448;2022-10-22T13:16:21;20.70;99.90
25949;DHT22;13961;51.178;4.448;2022-10-22T13:18:49;20.70;99.90
25949;DHT22;13961;51.178;4.448;2022-10-22T13:21:33;20.60;99.90
25949;DHT22;13961;51.178;4.448;2022-10-22T13:24:23;20.40;99.90
25949;DHT22;13961;51.178;4.448;2022-10-22T13:26:52;20.30;99.90
25949;DHT22;13961;51.178;4.448;2022-10-22T13:29:20;20.50;99.90
25949;DHT22;13961;51.178;4.448;2022-10-22T13:31:51;20.80;99.90
25949;DHT22;13961;51.178;4.448;2022-10-22T13:34:20;21.00;99.90
25949;DHT22;13961;51.178;4.448;2022-10-22T13:36:47;21.10;99.90
25949;DHT22;13961;51.178;4.448;2022-10-22T13:39:19;21.20;99.90
25949;DHT22;13961;51.178;4.448;2022-10-22T13:41:45;21.30;99.90
25949;DHT22;13961;51.178;4.448;2022-10-22T13:44:11;21.50;99.90
25949;DHT22;13961;51.178;4.448;2022-10-22T13:46:37;21.70;99.90
25949;DHT22;13961;51.178;4.448;2022-10-22T13:49:19;21.50;99.90
25949;DHT22;13961;51.178;4.448;2022-10-22T13:51:45;20.90;99.90
25949;DHT22;13961;51.178;4.448;2022-10-22T13:54:22;21.10;99.90
25949;DHT22;13961;51.178;4.448;2022-10-22T13:56:49;20.70;99.90
25949;DHT22;13961;51.178;4.448;2022-10-22T13:59:14;20.70;99.90
25949;DHT22;13961;51.178;4.448;2022-10-22T14:01:41;21.00;99.90
25949;DHT22;13961;51.178;4.448;2022-10-22T14:04:10;21.00;99.90
25949;DHT22;13961;51.178;4.448;2022-10-22T14:06:37;21.20;99.90
25949;DHT22;13961;51.178;4.448;2022-10-22T14:09:12;21.10;99.90
25949;DHT22;13961;51.178;4.448;2022-10-22T14:11:41;21.10;99.90
25949;DHT22;13961;51.178;4.448;2022-10-22T14:14:08;20.90;99.90
25949;DHT22;13961;51.178;4.448;2022-10-22T14:16:38;20.70;99.90
25949;DHT22;13961;51.178;4.448;2022-10-22T14:19:06;20.70;99.90
25949;DHT22;13961;51.178;4.448;2022-10-22T14:21:35;20.70;99.90
25949;DHT22;13961;51.178;4.448;2022-10-22T14:24:01;20.50;99.90
25949;DHT22;13961;51.178;4.448;2022-10-22T14:26:30;20.40;99.90
25949;DHT22;13961;51.178;4.448;2022-10-22T14:28:58;20.40;99.90
25949;DHT22;13961;51.178;4.448;2022-10-22T14:31:25;20.30;99.90
25949;DHT22;13961;51.178;4.448;2022-10-22T14:33:51;20.40;99.90
25949;DHT22;13961;51.178;4.448;2022-10-22T14:36:17;20.70;99.90
25949;DHT22;13961;51.178;4.448;2022-10-22T14:38:46;20.70;99.90
25949;DHT22;13961;51.178;4.448;2022-10-22T14:41:23;20.70;99.90
25949;DHT22;13961;51.178;4.448;2022-10-22T14:43:50;20.50;99.90
25949;DHT22;13961;51.178;4.448;2022-10-22T14:46:18;20.60;99.90
25949;DHT22;13961;51.178;4.448;2022-10-22T14:48:45;20.70;99.90
25949;DHT22;13961;51.178;4.448;2022-10-22T14:51:16;20.80;99.90
25949;DHT22;13961;51.178;4.448;2022-10-22T14:53:43;20.70;99.90
25949;DHT22;13961;51.178;4.448;2022-10-22T14:56:14;20.50;99.90
25949;DHT22;13961;51.178;4.448;2022-10-22T14:58:45;20.40;99.90
25949;DHT22;13961;51.178;4.448;2022-10-22T15:01:14;20.30;99.90
25949;DHT22;13961;51.178;4.448;2022-10-22T15:03:41;20.10;99.90
25949;DHT22;13961;51.178;4.448;2022-10-22T15:06:07;20.20;99.90
25949;DHT22;13961;51.178;4.448;2022-10-22T15:08:33;20.10;99.90
25949;DHT22;13961;51.178;4.448;2022-10-22T15:11:07;20.00;99.90
25949;DHT22;13961;51.178;4.448;2022-10-22T15:13:34;20.20;99.90
25949;DHT22;13961;51.178;4.448;2022-10-22T15:16:05;20.40;99.90
25949;DHT22;13961;51.178;4.448;2022-10-22T15:18:31;20.30;99.90
25949;DHT22;13961;51.178;4.448;2022-10-22T15:21:10;20.40;99.90
25949;DHT22;13961;51.178;4.448;2022-10-22T15:23:37;20.40;99.90
25949;DHT22;13961;51.178;4.448;2022-10-22T15:26:06;20.40;99.90
25949;DHT22;13961;51.178;4.448;2022-10-22T15:28:32;20.40;99.90
25949;DHT22;13961;51.178;4.448;2022-10-22T15:30:59;20.30;99.90
25949;DHT22;13961;51.178;4.448;2022-10-22T15:33:27;20.20;99.90
25949;DHT22;13961;51.178;4.448;2022-10-22T15:35:54;20.20;99.90
25949;DHT22;13961;51.178;4.448;2022-10-22T15:38:22;20.30;99.90
25949;DHT22;13961;51.178;4.448;2022-10-22T15:40:59;20.10;99.90
25949;DHT22;13961;51.178;4.448;2022-10-22T15:43:26;20.20;99.90
25949;DHT22;13961;51.178;4.448;2022-10-22T15:48:34;20.10;99.90
25949;DHT22;13961;51.178;4.448;2022-10-22T15:51:01;20.00;99.90
25949;DHT22;13961;51.178;4.448;2022-10-22T15:53:31;20.10;99.90
25949;DHT22;13961;51.178;4.448;2022-10-22T15:55:57;20.00;99.90
25949;DHT22;13961;51.178;4.448;2022-10-22T15:58:24;19.90;99.90
25949;DHT22;13961;51.178;4.448;2022-10-22T16:00:50;20.00;99.90
25949;DHT22;13961;51.178;4.448;2022-10-22T16:03:16;19.90;99.90
25949;DHT22;13961;51.178;4.448;2022-10-22T16:05:51;19.80;99.90
25949;DHT22;13961;51.178;4.448;2022-10-22T16:08:23;19.60;99.90
25949;DHT22;13961;51.178;4.448;2022-10-22T16:10:50;19.50;99.90
25949;DHT22;13961;51.178;4.448;2022-10-22T16:13:16;19.50;99.90
25949;DHT22;13961;51.178;4.448;2022-10-22T16:15:42;19.50;99.90
25949;DHT22;13961;51.178;4.448;2022-10-22T16:18:08;19.50;99.90
25949;DHT22;13961;51.178;4.448;2022-10-22T16:20:39;19.30;99.90
25949;DHT22;13961;51.178;4.448;2022-10-22T16:23:05;19.30;99.90
25949;DHT22;13961;51.178;4.448;2022-10-22T16:25:37;19.20;99.90
25949;DHT22;13961;51.178;4.448;2022-10-22T16:28:03;18.90;99.90
25949;DHT22;13961;51.178;4.448;2022-10-22T16:30:28;18.90;99.90
25949;DHT22;13961;51.178;4.448;2022-10-22T16:32:56;18.80;99.90
25949;DHT22;13961;51.178;4.448;2022-10-22T16:35:22;18.60;99.90
25949;DHT22;13961;51.178;4.448;2022-10-22T16:37:47;18.60;99.90
25949;DHT22;13961;51.178;4.448;2022-10-22T16:40:13;18.60;99.90
25949;DHT22;13961;51.178;4.448;2022-10-22T16:42:41;18.40;99.90
25949;DHT22;13961;51.178;4.448;2022-10-22T16:45:13;18.40;99.90
25949;DHT22;13961;51.178;4.448;2022-10-22T16:47:39;18.50;99.90
25949;DHT22;13961;51.178;4.448;2022-10-22T16:50:07;18.50;99.90
25949;DHT22;13961;51.178;4.448;2022-10-22T16:52:34;18.60;99.90
25949;DHT22;13961;51.178;4.448;2022-10-22T16:55:00;18.60;99.90
25949;DHT22;13961;51.178;4.448;2022-10-22T16:57:27;18.60;99.90
25949;DHT22;13961;51.178;4.448;2022-10-22T16:59:53;18.50;99.90
25949;DHT22;13961;51.178;4.448;2022-10-22T17:02:20;18.40;99.90
25949;DHT22;13961;51.178;4.448;2022-10-22T17:04:47;18.30;99.90
25949;DHT22;13961;51.178;4.448;2022-10-22T17:07:12;18.30;99.90
25949;DHT22;13961;51.178;4.448;2022-10-22T17:09:40;18.30;99.90
25949;DHT22;13961;51.178;4.448;2022-10-22T17:12:05;18.30;99.90
25949;DHT22;13961;51.178;4.448;2022-10-22T17:14:31;18.20;99.90
25949;DHT22;13961;51.178;4.448;2022-10-22T17:16:57;18.00;99.90
25949;DHT22;13961;51.178;4.448;2022-10-22T17:19:23;18.00;99.90
25949;DHT22;13961;51.178;4.448;2022-10-22T17:21:48;17.90;99.90